sensor_id;sensor_type;location;lat;lon;timestamp;temperature;humidity
70154;DHT22;57519;51.494;-2.626;2023-02-05T00:02:23;8.68;93.15
70154;DHT22;57519;51.494;-2.626;2023-02-05T00:04:49;8.65;93.02
70154;DHT22;57519;51.494;-2.626;2023-02-05T00:07:14;8.68;93.02
70154;DHT22;57519;51.494;-2.626;2023-02-05T00:09:40;8.71;93.02
70154;DHT22;57519;51.494;-2.626;2023-02-05T00:12:06;8.72;92.93
70154;DHT22;57519;51.494;-2.626;2023-02-05T00:14:32;8.75;92.75
70154;DHT22;57519;51.494;-2.626;2023-02-05T00:16:57;8.70;92.67
70154;DHT22;57519;51.494;-2.626;2023-02-05T00:19:23;8.72;92.32
70154;DHT22;57519;51.494;-2.626;2023-02-05T00:21:48;8.81;91.66
70154;DHT22;57519;51.494;-2.626;2023-02-05T00:24:14;8.61;91.28
70154;DHT22;57519;51.494;-2.626;2023-02-05T00:26:39;8.46;91.57
70154;DHT22;57519;51.494;-2.626;2023-02-05T00:29:05;8.28;91.61
70154;DHT22;57519;51.494;-2.626;2023-02-05T00:31:30;8.23;90.03
70154;DHT22;57519;51.494;-2.626;2023-02-05T00:33:56;8.14;89.05
70154;DHT22;57519;51.494;-2.626;2023-02-05T00:36:22;8.17;88.20
70154;DHT22;57519;51.494;-2.626;2023-02-05T00:38:49;8.16;86.97
70154;DHT22;57519;51.494;-2.626;2023-02-05T00:41:15;8.14;86.64
70154;DHT22;57519;51.494;-2.626;2023-02-05T00:43:41;8.16;86.63
70154;DHT22;57519;51.494;-2.626;2023-02-05T00:46:07;8.10;87.29
70154;DHT22;57519;51.494;-2.626;2023-02-05T00:48:33;8.07;86.99
70154;DHT22;57519;51.494;-2.626;2023-02-05T00:50:58;8.09;86.26
70154;DHT22;57519;51.494;-2.626;2023-02-05T00:53:24;8.05;85.90
70154;DHT22;57519;51.494;-2.626;2023-02-05T00:55:51;8.05;86.27
70154;DHT22;57519;51.494;-2.626;2023-02-05T00:58:16;8.02;86.64
70154;DHT22;57519;51.494;-2.626;2023-02-05T01:00:42;8.05;86.50
70154;DHT22;57519;51.494;-2.626;2023-02-05T01:03:08;8.02;86.03
70154;DHT22;57519;51.494;-2.626;2023-02-05T01:05:34;8.02;85.16
70154;DHT22;57519;51.494;-2.626;2023-02-05T01:08:00;8.05;85.48
70154;DHT22;57519;51.494;-2.626;2023-02-05T01:10:26;8.02;84.83
70154;DHT22;57519;51.494;-2.626;2023-02-05T01:12:51;8.01;85.01
70154;DHT22;57519;51.494;-2.626;2023-02-05T01:15:17;7.94;85.29
70154;DHT22;57519;51.494;-2.626;2023-02-05T01:17:43;7.89;85.21
70154;DHT22;57519;51.494;-2.626;2023-02-05T01:20:11;7.85;85.07
70154;DHT22;57519;51.494;-2.626;2023-02-05T01:22:37;7.74;85.36
70154;DHT22;57519;51.494;-2.626;2023-02-05T01:25:03;7.74;86.07
70154;DHT22;57519;51.494;-2.626;2023-02-05T01:27:28;7.68;86.21
70154;DHT22;57519;51.494;-2.626;2023-02-05T01:29:54;7.74;86.58
70154;DHT22;57519;51.494;-2.626;2023-02-05T01:32:19;7.60;86.17
70154;DHT22;57519;51.494;-2.626;2023-02-05T01:34:45;7.48;86.30
70154;DHT22;57519;51.494;-2.626;2023-02-05T01:37:10;7.44;86.39
70154;DHT22;57519;51.494;-2.626;2023-02-05T01:39:36;7.40;84.46
70154;DHT22;57519;51.494;-2.626;2023-02-05T01:42:03;7.34;83.50
70154;DHT22;57519;51.494;-2.626;2023-02-05T01:44:31;7.27;83.89
70154;DHT22;57519;51.494;-2.626;2023-02-05T01:46:56;7.19;84.60
70154;DHT22;57519;51.494;-2.626;2023-02-05T01:49:32;7.16;84.03
70154;DHT22;57519;51.494;-2.626;2023-02-05T01:52:03;7.02;85.05
70154;DHT22;57519;51.494;-2.626;2023-02-05T01:54:32;6.88;85.17
70154;DHT22;57519;51.494;-2.626;2023-02-05T01:57:02;6.77;85.37
70154;DHT22;57519;51.494;-2.626;2023-02-05T01:59:31;6.60;86.05
70154;DHT22;57519;51.494;-2.626;2023-02-05T02:01:59;6.47;86.39
70154;DHT22;57519;51.494;-2.626;2023-02-05T02:04:38;6.37;86.81
70154;DHT22;57519;51.494;-2.626;2023-02-05T02:07:05;6.29;87.37
70154;DHT22;57519;51.494;-2.626;2023-02-05T02:09:32;6.21;86.92
70154;DHT22;57519;51.494;-2.626;2023-02-05T02:11:58;6.03;87.28
70154;DHT22;57519;51.494;-2.626;2023-02-05T02:14:25;5.93;87.87
70154;DHT22;57519;51.494;-2.626;2023-02-05T02:16:53;5.75;87.65
70154;DHT22;57519;51.494;-2.626;2023-02-05T02:24:53;5.64;85.55
70154;DHT22;57519;51.494;-2.626;2023-02-05T02:30:02;5.35;86.70
70154;DHT22;57519;51.494;-2.626;2023-02-05T02:32:41;5.37;87.41
70154;DHT22;57519;51.494;-2.626;2023-02-05T02:37:50;5.30;86.67
70154;DHT22;57519;51.494;-2.626;2023-02-05T02:40:22;5.13;87.28
70154;DHT22;57519;51.494;-2.626;2023-02-05T02:43:14;4.99;88.07
70154;DHT22;57519;51.494;-2.626;2023-02-05T02:45:49;4.75;88.52
70154;DHT22;57519;51.494;-2.626;2023-02-05T02:48:17;4.65;89.16
70154;DHT22;57519;51.494;-2.626;2023-02-05T02:50:47;4.48;88.83
70154;DHT22;57519;51.494;-2.626;2023-02-05T02:53:16;4.54;89.31
70154;DHT22;57519;51.494;-2.626;2023-02-05T02:55:43;4.57;89.38
70154;DHT22;57519;51.494;-2.626;2023-02-05T02:58:20;4.49;89.19
70154;DHT22;57519;51.494;-2.626;2023-02-05T03:00:48;4.44;89.21
70154;DHT22;57519;51.494;-2.626;2023-02-05T03:03:16;4.30;88.96
70154;DHT22;57519;51.494;-2.626;2023-02-05T03:05:44;4.17;88.98
70154;DHT22;57519;51.494;-2.626;2023-02-05T03:08:20;4.03;89.30
70154;DHT22;57519;51.494;-2.626;2023-02-05T03:13:17;3.80;89.93
70154;DHT22;57519;51.494;-2.626;2023-02-05T03:15:44;3.63;89.72
70154;DHT22;57519;51.494;-2.626;2023-02-05T03:18:11;3.76;90.36
70154;DHT22;57519;51.494;-2.626;2023-02-05T03:20:44;3.80;90.12
70154;DHT22;57519;51.494;-2.626;2023-02-05T03:23:09;3.96;89.07
70154;DHT22;57519;51.494;-2.626;2023-02-05T03:25:35;4.07;88.33
70154;DHT22;57519;51.494;-2.626;2023-02-05T03:28:01;4.13;87.30
70154;DHT22;57519;51.494;-2.626;2023-02-05T03:38:51;3.61;88.21
70154;DHT22;57519;51.494;-2.626;2023-02-05T03:47:02;3.34;88.17
70154;DHT22;57519;51.494;-2.626;2023-02-05T03:52:16;3.24;88.80
70154;DHT22;57519;51.494;-2.626;2023-02-05T03:54:50;3.31;88.19
70154;DHT22;57519;51.494;-2.626;2023-02-05T03:57:23;3.28;88.36
70154;DHT22;57519;51.494;-2.626;2023-02-05T03:59:51;3.30;88.03
70154;DHT22;57519;51.494;-2.626;2023-02-05T04:02:18;3.23;87.75
70154;DHT22;57519;51.494;-2.626;2023-02-05T04:04:44;3.10;88.11
70154;DHT22;57519;51.494;-2.626;2023-02-05T04:07:10;3.04;88.59
70154;DHT22;57519;51.494;-2.626;2023-02-05T04:09:35;2.96;88.89
70154;DHT22;57519;51.494;-2.626;2023-02-05T04:12:01;2.84;88.69
70154;DHT22;57519;51.494;-2.626;2023-02-05T04:14:26;2.77;88.97
70154;DHT22;57519;51.494;-2.626;2023-02-05T04:16:52;2.72;89.12
70154;DHT22;57519;51.494;-2.626;2023-02-05T04:19:17;2.63;89.31
70154;DHT22;57519;51.494;-2.626;2023-02-05T04:21:43;2.63;89.52
70154;DHT22;57519;51.494;-2.626;2023-02-05T04:24:08;2.72;89.43
70154;DHT22;57519;51.494;-2.626;2023-02-05T04:26:34;3.15;87.95
70154;DHT22;57519;51.494;-2.626;2023-02-05T04:28:59;3.36;86.82
70154;DHT22;57519;51.494;-2.626;2023-02-05T04:31:25;3.45;86.47
70154;DHT22;57519;51.494;-2.626;2023-02-05T04:33:50;3.36;85.77
70154;DHT22;57519;51.494;-2.626;2023-02-05T04:36:15;3.34;86.02
70154;DHT22;57519;51.494;-2.626;2023-02-05T04:38:41;3.11;86.47
70154;DHT22;57519;51.494;-2.626;2023-02-05T04:41:06;2.97;87.12
70154;DHT22;57519;51.494;-2.626;2023-02-05T04:43:32;2.89;87.43
70154;DHT22;57519;51.494;-2.626;2023-02-05T04:46:04;2.92;87.30
70154;DHT22;57519;51.494;-2.626;2023-02-05T04:48:29;2.86;87.45
70154;DHT22;57519;51.494;-2.626;2023-02-05T04:50:57;2.82;87.53
70154;DHT22;57519;51.494;-2.626;2023-02-05T04:53:23;2.53;87.66
70154;DHT22;57519;51.494;-2.626;2023-02-05T04:55:48;2.38;88.39
70154;DHT22;57519;51.494;-2.626;2023-02-05T04:58:13;2.50;89.26
70154;DHT22;57519;51.494;-2.626;2023-02-05T05:00:39;2.34;88.64
70154;DHT22;57519;51.494;-2.626;2023-02-05T05:03:04;2.34;89.24
70154;DHT22;57519;51.494;-2.626;2023-02-05T05:05:30;2.13;89.38
70154;DHT22;57519;51.494;-2.626;2023-02-05T05:07:58;2.00;89.61
70154;DHT22;57519;51.494;-2.626;2023-02-05T05:10:23;1.90;89.66
70154;DHT22;57519;51.494;-2.626;2023-02-05T05:12:48;1.90;89.99
70154;DHT22;57519;51.494;-2.626;2023-02-05T05:15:14;1.90;90.05
70154;DHT22;57519;51.494;-2.626;2023-02-05T05:17:39;1.77;89.74
70154;DHT22;57519;51.494;-2.626;2023-02-05T05:20:05;1.69;90.46
70154;DHT22;57519;51.494;-2.626;2023-02-05T05:22:30;1.56;90.20
70154;DHT22;57519;51.494;-2.626;2023-02-05T05:24:56;1.46;90.55
70154;DHT22;57519;51.494;-2.626;2023-02-05T05:27:21;1.53;90.67
70154;DHT22;57519;51.494;-2.626;2023-02-05T05:29:48;1.56;90.75
70154;DHT22;57519;51.494;-2.626;2023-02-05T05:32:15;1.49;90.60
70154;DHT22;57519;51.494;-2.626;2023-02-05T05:34:40;1.50;90.57
70154;DHT22;57519;51.494;-2.626;2023-02-05T05:37:06;1.52;90.64
70154;DHT22;57519;51.494;-2.626;2023-02-05T05:39:31;1.60;90.80
70154;DHT22;57519;51.494;-2.626;2023-02-05T05:42:15;1.43;90.91
70154;DHT22;57519;51.494;-2.626;2023-02-05T05:44:59;1.53;91.34
70154;DHT22;57519;51.494;-2.626;2023-02-05T05:47:24;1.48;90.93
70154;DHT22;57519;51.494;-2.626;2023-02-05T05:49:50;1.42;90.81
70154;DHT22;57519;51.494;-2.626;2023-02-05T05:52:15;1.38;90.95
70154;DHT22;57519;51.494;-2.626;2023-02-05T05:54:41;1.53;91.43
70154;DHT22;57519;51.494;-2.626;2023-02-05T05:57:06;1.59;91.60
70154;DHT22;57519;51.494;-2.626;2023-02-05T05:59:32;1.56;90.97
70154;DHT22;57519;51.494;-2.626;2023-02-05T06:02:00;1.59;91.22
70154;DHT22;57519;51.494;-2.626;2023-02-05T06:04:26;1.81;90.97
70154;DHT22;57519;51.494;-2.626;2023-02-05T06:06:51;1.81;90.66
70154;DHT22;57519;51.494;-2.626;2023-02-05T06:09:16;1.79;90.39
70154;DHT22;57519;51.494;-2.626;2023-02-05T06:11:42;1.84;90.05
70154;DHT22;57519;51.494;-2.626;2023-02-05T06:14:07;1.74;90.07
70154;DHT22;57519;51.494;-2.626;2023-02-05T06:16:32;1.63;90.06
70154;DHT22;57519;51.494;-2.626;2023-02-05T06:18:58;1.67;90.39
70154;DHT22;57519;51.494;-2.626;2023-02-05T06:21:23;1.64;90.31
70154;DHT22;57519;51.494;-2.626;2023-02-05T06:23:49;1.76;90.44
70154;DHT22;57519;51.494;-2.626;2023-02-05T06:26:14;1.97;90.24
70154;DHT22;57519;51.494;-2.626;2023-02-05T06:28:40;1.87;89.42
70154;DHT22;57519;51.494;-2.626;2023-02-05T06:31:05;1.71;89.33
70154;DHT22;57519;51.494;-2.626;2023-02-05T06:33:31;1.59;89.37
70154;DHT22;57519;51.494;-2.626;2023-02-05T06:35:56;1.45;89.54
70154;DHT22;57519;51.494;-2.626;2023-02-05T06:38:21;1.46;89.97
70154;DHT22;57519;51.494;-2.626;2023-02-05T06:40:47;1.50;90.11
70154;DHT22;57519;51.494;-2.626;2023-02-05T06:43:13;1.43;90.28
70154;DHT22;57519;51.494;-2.626;2023-02-05T06:45:38;1.48;90.31
70154;DHT22;57519;51.494;-2.626;2023-02-05T06:48:04;1.50;90.53
70154;DHT22;57519;51.494;-2.626;2023-02-05T06:50:30;1.45;90.33
70154;DHT22;57519;51.494;-2.626;2023-02-05T06:52:55;1.55;90.21
70154;DHT22;57519;51.494;-2.626;2023-02-05T06:55:20;1.69;90.17
70154;DHT22;57519;51.494;-2.626;2023-02-05T06:57:46;1.90;90.28
70154;DHT22;57519;51.494;-2.626;2023-02-05T07:00:14;2.17;89.65
70154;DHT22;57519;51.494;-2.626;2023-02-05T07:02:40;2.49;88.57
70154;DHT22;57519;51.494;-2.626;2023-02-05T07:05:06;2.57;88.08
70154;DHT22;57519;51.494;-2.626;2023-02-05T07:07:31;2.41;87.84
70154;DHT22;57519;51.494;-2.626;2023-02-05T07:09:58;2.20;87.99
70154;DHT22;57519;51.494;-2.626;2023-02-05T07:12:23;2.04;88.40
70154;DHT22;57519;51.494;-2.626;2023-02-05T07:14:48;1.93;88.70
70154;DHT22;57519;51.494;-2.626;2023-02-05T07:17:14;1.67;88.81
70154;DHT22;57519;51.494;-2.626;2023-02-05T07:19:39;1.55;89.35
70154;DHT22;57519;51.494;-2.626;2023-02-05T07:22:05;1.43;89.84
70154;DHT22;57519;51.494;-2.626;2023-02-05T07:24:31;1.36;90.68
70154;DHT22;57519;51.494;-2.626;2023-02-05T07:26:56;1.31;90.66
70154;DHT22;57519;51.494;-2.626;2023-02-05T07:29:21;1.20;90.56
70154;DHT22;57519;51.494;-2.626;2023-02-05T07:31:50;1.52;91.19
70154;DHT22;57519;51.494;-2.626;2023-02-05T07:34:17;1.94;90.57
70154;DHT22;57519;51.494;-2.626;2023-02-05T07:36:43;2.49;88.85
70154;DHT22;57519;51.494;-2.626;2023-02-05T07:39:08;2.56;87.86
70154;DHT22;57519;51.494;-2.626;2023-02-05T07:41:33;2.50;87.79
70154;DHT22;57519;51.494;-2.626;2023-02-05T07:43:59;2.44;87.88
70154;DHT22;57519;51.494;-2.626;2023-02-05T07:46:24;2.36;87.98
70154;DHT22;57519;51.494;-2.626;2023-02-05T07:48:50;2.38;88.01
70154;DHT22;57519;51.494;-2.626;2023-02-05T07:51:18;2.38;88.16
70154;DHT22;57519;51.494;-2.626;2023-02-05T07:53:44;2.34;88.30
70154;DHT22;57519;51.494;-2.626;2023-02-05T07:56:09;2.22;88.21
70154;DHT22;57519;51.494;-2.626;2023-02-05T07:58:35;2.07;88.48
70154;DHT22;57519;51.494;-2.626;2023-02-05T08:01:04;2.10;88.88
70154;DHT22;57519;51.494;-2.626;2023-02-05T08:03:30;2.06;88.71
70154;DHT22;57519;51.494;-2.626;2023-02-05T08:05:56;1.97;88.88
70154;DHT22;57519;51.494;-2.626;2023-02-05T08:08:21;1.87;89.46
70154;DHT22;57519;51.494;-2.626;2023-02-05T08:10:53;1.80;89.54
70154;DHT22;57519;51.494;-2.626;2023-02-05T08:13:19;1.73;89.72
70154;DHT22;57519;51.494;-2.626;2023-02-05T08:15:45;1.77;89.90
70154;DHT22;57519;51.494;-2.626;2023-02-05T08:18:10;1.64;89.68
70154;DHT22;57519;51.494;-2.626;2023-02-05T08:20:35;1.55;89.67
70154;DHT22;57519;51.494;-2.626;2023-02-05T08:23:01;1.53;90.09
70154;DHT22;57519;51.494;-2.626;2023-02-05T08:25:29;1.52;90.13
70154;DHT22;57519;51.494;-2.626;2023-02-05T08:27:55;1.58;90.35
70154;DHT22;57519;51.494;-2.626;2023-02-05T08:30:20;1.69;90.31
70154;DHT22;57519;51.494;-2.626;2023-02-05T08:32:47;1.80;90.40
70154;DHT22;57519;51.494;-2.626;2023-02-05T08:35:13;1.80;90.11
70154;DHT22;57519;51.494;-2.626;2023-02-05T08:37:39;1.71;90.26
70154;DHT22;57519;51.494;-2.626;2023-02-05T08:40:04;1.79;90.43
70154;DHT22;57519;51.494;-2.626;2023-02-05T08:42:30;1.90;90.67
70154;DHT22;57519;51.494;-2.626;2023-02-05T08:44:55;2.24;89.99
70154;DHT22;57519;51.494;-2.626;2023-02-05T08:47:23;2.52;89.07
70154;DHT22;57519;51.494;-2.626;2023-02-05T08:49:48;2.79;88.01
70154;DHT22;57519;51.494;-2.626;2023-02-05T08:52:14;3.03;87.18
70154;DHT22;57519;51.494;-2.626;2023-02-05T08:54:39;3.05;87.16
70154;DHT22;57519;51.494;-2.626;2023-02-05T08:57:06;3.03;87.06
70154;DHT22;57519;51.494;-2.626;2023-02-05T08:59:32;3.07;87.00
70154;DHT22;57519;51.494;-2.626;2023-02-05T09:01:57;3.14;86.72
70154;DHT22;57519;51.494;-2.626;2023-02-05T09:04:22;3.31;85.47
70154;DHT22;57519;51.494;-2.626;2023-02-05T09:06:48;3.38;85.81
70154;DHT22;57519;51.494;-2.626;2023-02-05T09:09:14;3.45;85.38
70154;DHT22;57519;51.494;-2.626;2023-02-05T09:11:40;3.59;84.67
70154;DHT22;57519;51.494;-2.626;2023-02-05T09:14:07;3.65;84.84
70154;DHT22;57519;51.494;-2.626;2023-02-05T09:16:33;3.72;84.09
70154;DHT22;57519;51.494;-2.626;2023-02-05T09:18:58;3.85;83.00
70154;DHT22;57519;51.494;-2.626;2023-02-05T09:21:24;3.93;83.21
70154;DHT22;57519;51.494;-2.626;2023-02-05T09:23:51;4.03;82.96
70154;DHT22;57519;51.494;-2.626;2023-02-05T09:26:17;4.09;82.36
70154;DHT22;57519;51.494;-2.626;2023-02-05T09:28:43;4.14;82.22
70154;DHT22;57519;51.494;-2.626;2023-02-05T09:31:11;4.16;82.26
70154;DHT22;57519;51.494;-2.626;2023-02-05T09:33:37;4.16;81.94
70154;DHT22;57519;51.494;-2.626;2023-02-05T09:36:07;4.18;82.09
70154;DHT22;57519;51.494;-2.626;2023-02-05T09:38:32;4.28;81.01
70154;DHT22;57519;51.494;-2.626;2023-02-05T09:41:15;4.28;81.39
70154;DHT22;57519;51.494;-2.626;2023-02-05T09:43:58;4.34;81.67
70154;DHT22;57519;51.494;-2.626;2023-02-05T09:46:46;4.38;81.34
70154;DHT22;57519;51.494;-2.626;2023-02-05T09:49:26;4.44;81.20
70154;DHT22;57519;51.494;-2.626;2023-02-05T09:52:00;4.48;80.99
70154;DHT22;57519;51.494;-2.626;2023-02-05T09:54:34;4.58;80.61
70154;DHT22;57519;51.494;-2.626;2023-02-05T09:57:06;4.62;80.85
70154;DHT22;57519;51.494;-2.626;2023-02-05T09:59:34;4.71;80.12
70154;DHT22;57519;51.494;-2.626;2023-02-05T10:02:11;4.78;81.09
70154;DHT22;57519;51.494;-2.626;2023-02-05T10:04:40;4.78;80.19
70154;DHT22;57519;51.494;-2.626;2023-02-05T10:07:22;4.89;79.66
70154;DHT22;57519;51.494;-2.626;2023-02-05T10:26:24;5.10;78.04
70154;DHT22;57519;51.494;-2.626;2023-02-05T10:34:58;5.35;77.75
70154;DHT22;57519;51.494;-2.626;2023-02-05T10:37:42;5.41;77.57
70154;DHT22;57519;51.494;-2.626;2023-02-05T10:40:17;5.45;77.21
70154;DHT22;57519;51.494;-2.626;2023-02-05T10:42:49;5.50;77.19
70154;DHT22;57519;51.494;-2.626;2023-02-05T10:45:54;5.64;76.89
70154;DHT22;57519;51.494;-2.626;2023-02-05T10:48:51;5.75;76.59
70154;DHT22;57519;51.494;-2.626;2023-02-05T10:51:41;5.92;76.72
70154;DHT22;57519;51.494;-2.626;2023-02-05T10:54:27;5.93;76.54
70154;DHT22;57519;51.494;-2.626;2023-02-05T10:56:55;5.95;75.38
70154;DHT22;57519;51.494;-2.626;2023-02-05T10:59:28;6.00;75.23
70154;DHT22;57519;51.494;-2.626;2023-02-05T11:01:54;6.10;75.16
70154;DHT22;57519;51.494;-2.626;2023-02-05T11:04:32;6.12;74.19
70154;DHT22;57519;51.494;-2.626;2023-02-05T11:06:59;6.09;74.66
70154;DHT22;57519;51.494;-2.626;2023-02-05T11:09:32;6.21;73.50
70154;DHT22;57519;51.494;-2.626;2023-02-05T11:12:13;6.26;73.98
70154;DHT22;57519;51.494;-2.626;2023-02-05T11:14:46;6.37;74.72
70154;DHT22;57519;51.494;-2.626;2023-02-05T11:17:25;6.33;73.11
70154;DHT22;57519;51.494;-2.626;2023-02-05T11:20:04;6.41;74.27
70154;DHT22;57519;51.494;-2.626;2023-02-05T11:22:33;6.31;73.22
70154;DHT22;57519;51.494;-2.626;2023-02-05T11:25:19;6.20;73.34
70154;DHT22;57519;51.494;-2.626;2023-02-05T11:27:57;6.23;74.76
70154;DHT22;57519;51.494;-2.626;2023-02-05T11:30:32;6.12;74.57
70154;DHT22;57519;51.494;-2.626;2023-02-05T11:33:17;6.02;74.33
70154;DHT22;57519;51.494;-2.626;2023-02-05T11:35:58;6.03;74.15
70154;DHT22;57519;51.494;-2.626;2023-02-05T11:38:25;6.12;73.88
70154;DHT22;57519;51.494;-2.626;2023-02-05T11:40:56;6.17;74.12
70154;DHT22;57519;51.494;-2.626;2023-02-05T11:45:58;6.29;73.73
70154;DHT22;57519;51.494;-2.626;2023-02-05T11:51:00;6.27;73.48
70154;DHT22;57519;51.494;-2.626;2023-02-05T11:53:26;6.34;72.49
70154;DHT22;57519;51.494;-2.626;2023-02-05T11:55:54;6.48;72.88
70154;DHT22;57519;51.494;-2.626;2023-02-05T11:58:29;6.44;72.35
70154;DHT22;57519;51.494;-2.626;2023-02-05T12:01:02;6.47;73.19
70154;DHT22;57519;51.494;-2.626;2023-02-05T12:03:33;6.58;73.46
70154;DHT22;57519;51.494;-2.626;2023-02-05T12:06:19;6.67;72.41
70154;DHT22;57519;51.494;-2.626;2023-02-05T12:08:49;6.65;71.45
70154;DHT22;57519;51.494;-2.626;2023-02-05T12:12:03;6.78;71.02
70154;DHT22;57519;51.494;-2.626;2023-02-05T12:20:11;7.03;71.38
70154;DHT22;57519;51.494;-2.626;2023-02-05T12:28:07;6.98;70.97
70154;DHT22;57519;51.494;-2.626;2023-02-05T12:31:00;6.96;70.81
70154;DHT22;57519;51.494;-2.626;2023-02-05T12:39:58;7.02;70.57
70154;DHT22;57519;51.494;-2.626;2023-02-05T12:42:50;7.27;70.99
70154;DHT22;57519;51.494;-2.626;2023-02-05T12:56:41;7.40;69.00
70154;DHT22;57519;51.494;-2.626;2023-02-05T13:02:28;7.40;67.35
70154;DHT22;57519;51.494;-2.626;2023-02-05T13:05:11;7.65;68.57
70154;DHT22;57519;51.494;-2.626;2023-02-05T13:07:45;7.74;67.90
70154;DHT22;57519;51.494;-2.626;2023-02-05T13:13:23;8.03;66.98
70154;DHT22;57519;51.494;-2.626;2023-02-05T13:15:58;8.09;67.80
70154;DHT22;57519;51.494;-2.626;2023-02-05T13:19:01;8.13;66.78
70154;DHT22;57519;51.494;-2.626;2023-02-05T13:21:19;8.02;65.75
70154;DHT22;57519;51.494;-2.626;2023-02-05T13:24:34;8.06;65.23
70154;DHT22;57519;51.494;-2.626;2023-02-05T13:27:30;8.07;66.15
70154;DHT22;57519;51.494;-2.626;2023-02-05T13:30:19;8.12;66.64
70154;DHT22;57519;51.494;-2.626;2023-02-05T13:32:49;8.13;66.61
70154;DHT22;57519;51.494;-2.626;2023-02-05T13:35:16;8.22;66.52
70154;DHT22;57519;51.494;-2.626;2023-02-05T13:38:05;8.25;66.78
70154;DHT22;57519;51.494;-2.626;2023-02-05T13:49:00;8.14;64.86
70154;DHT22;57519;51.494;-2.626;2023-02-05T14:00:04;7.95;66.14
70154;DHT22;57519;51.494;-2.626;2023-02-05T14:02:48;7.78;65.64
70154;DHT22;57519;51.494;-2.626;2023-02-05T14:05:30;7.68;65.17
70154;DHT22;57519;51.494;-2.626;2023-02-05T14:07:56;7.70;64.92
70154;DHT22;57519;51.494;-2.626;2023-02-05T14:10:31;7.70;65.62
70154;DHT22;57519;51.494;-2.626;2023-02-05T14:13:31;7.67;65.91
70154;DHT22;57519;51.494;-2.626;2023-02-05T14:24:00;7.86;65.46
70154;DHT22;57519;51.494;-2.626;2023-02-05T14:26:49;7.85;66.56
70154;DHT22;57519;51.494;-2.626;2023-02-05T14:29:40;7.77;65.28
70154;DHT22;57519;51.494;-2.626;2023-02-05T14:32:09;7.79;64.45
70154;DHT22;57519;51.494;-2.626;2023-02-05T14:34:44;7.79;65.02
70154;DHT22;57519;51.494;-2.626;2023-02-05T14:40:11;7.78;69.13
70154;DHT22;57519;51.494;-2.626;2023-02-05T14:42:37;7.70;69.94
70154;DHT22;57519;51.494;-2.626;2023-02-05T14:45:02;7.70;70.21
70154;DHT22;57519;51.494;-2.626;2023-02-05T14:47:32;7.82;69.97
70154;DHT22;57519;51.494;-2.626;2023-02-05T14:50:07;7.79;69.61
70154;DHT22;57519;51.494;-2.626;2023-02-05T14:52:36;7.84;69.79
70154;DHT22;57519;51.494;-2.626;2023-02-05T14:57:59;7.67;69.56
70154;DHT22;57519;51.494;-2.626;2023-02-05T15:00:37;7.67;69.81
70154;DHT22;57519;51.494;-2.626;2023-02-05T15:08:57;7.57;69.19
70154;DHT22;57519;51.494;-2.626;2023-02-05T15:11:19;7.64;69.74
70154;DHT22;57519;51.494;-2.626;2023-02-05T15:19:45;7.51;69.66
70154;DHT22;57519;51.494;-2.626;2023-02-05T15:22:27;7.43;70.25
70154;DHT22;57519;51.494;-2.626;2023-02-05T15:24:55;7.42;71.01
70154;DHT22;57519;51.494;-2.626;2023-02-05T15:27:25;7.34;70.63
70154;DHT22;57519;51.494;-2.626;2023-02-05T15:29:54;7.34;71.04
70154;DHT22;57519;51.494;-2.626;2023-02-05T15:32:24;7.36;71.32
70154;DHT22;57519;51.494;-2.626;2023-02-05T15:34:53;7.36;71.57
70154;DHT22;57519;51.494;-2.626;2023-02-05T15:37:26;7.37;71.84
70154;DHT22;57519;51.494;-2.626;2023-02-05T15:39:58;7.26;71.18
70154;DHT22;57519;51.494;-2.626;2023-02-05T15:42:35;7.15;72.16
70154;DHT22;57519;51.494;-2.626;2023-02-05T15:45:24;7.07;71.86
70154;DHT22;57519;51.494;-2.626;2023-02-05T15:50:42;6.89;72.73
70154;DHT22;57519;51.494;-2.626;2023-02-05T15:53:33;6.82;73.37
70154;DHT22;57519;51.494;-2.626;2023-02-05T15:56:10;6.72;73.86
70154;DHT22;57519;51.494;-2.626;2023-02-05T15:58:39;6.64;74.42
70154;DHT22;57519;51.494;-2.626;2023-02-05T16:01:09;6.55;74.13
70154;DHT22;57519;51.494;-2.626;2023-02-05T16:03:35;6.51;74.12
70154;DHT22;57519;51.494;-2.626;2023-02-05T16:06:03;6.42;74.36
70154;DHT22;57519;51.494;-2.626;2023-02-05T16:08:30;6.38;74.45
70154;DHT22;57519;51.494;-2.626;2023-02-05T16:10:57;6.36;75.04
70154;DHT22;57519;51.494;-2.626;2023-02-05T16:13:26;6.19;75.62
70154;DHT22;57519;51.494;-2.626;2023-02-05T16:16:01;6.07;76.28
70154;DHT22;57519;51.494;-2.626;2023-02-05T16:18:53;5.99;76.44
70154;DHT22;57519;51.494;-2.626;2023-02-05T16:21:21;5.93;76.24
70154;DHT22;57519;51.494;-2.626;2023-02-05T16:23:51;5.91;76.24
70154;DHT22;57519;51.494;-2.626;2023-02-05T16:26:31;5.92;76.01
70154;DHT22;57519;51.494;-2.626;2023-02-05T16:29:03;5.88;76.25
70154;DHT22;57519;51.494;-2.626;2023-02-05T16:31:30;5.76;76.35
70154;DHT22;57519;51.494;-2.626;2023-02-05T16:34:03;5.71;77.02
70154;DHT22;57519;51.494;-2.626;2023-02-05T16:36:33;5.58;77.75
70154;DHT22;57519;51.494;-2.626;2023-02-05T16:39:04;5.43;78.06
70154;DHT22;57519;51.494;-2.626;2023-02-05T16:41:36;5.16;79.60
70154;DHT22;57519;51.494;-2.626;2023-02-05T16:44:04;4.89;81.37
70154;DHT22;57519;51.494;-2.626;2023-02-05T16:46:34;4.79;81.91
70154;DHT22;57519;51.494;-2.626;2023-02-05T16:49:03;4.72;82.05
70154;DHT22;57519;51.494;-2.626;2023-02-05T16:56:54;4.31;83.15
70154;DHT22;57519;51.494;-2.626;2023-02-05T16:59:23;4.18;83.51
70154;DHT22;57519;51.494;-2.626;2023-02-05T17:01:51;4.14;83.90
70154;DHT22;57519;51.494;-2.626;2023-02-05T17:04:26;4.03;83.95
70154;DHT22;57519;51.494;-2.626;2023-02-05T17:06:54;3.91;84.10
70154;DHT22;57519;51.494;-2.626;2023-02-05T17:09:30;3.75;84.53
70154;DHT22;57519;51.494;-2.626;2023-02-05T17:15:22;3.50;85.89
70154;DHT22;57519;51.494;-2.626;2023-02-05T17:17:54;3.46;85.98
70154;DHT22;57519;51.494;-2.626;2023-02-05T17:20:25;3.51;86.12
70154;DHT22;57519;51.494;-2.626;2023-02-05T17:25:38;3.52;85.96
70154;DHT22;57519;51.494;-2.626;2023-02-05T17:28:11;3.52;85.89
70154;DHT22;57519;51.494;-2.626;2023-02-05T17:30:39;3.50;85.95
70154;DHT22;57519;51.494;-2.626;2023-02-05T17:33:07;3.41;85.81
70154;DHT22;57519;51.494;-2.626;2023-02-05T17:35:33;3.25;85.94
70154;DHT22;57519;51.494;-2.626;2023-02-05T17:37:58;3.25;86.29
70154;DHT22;57519;51.494;-2.626;2023-02-05T17:40:24;3.23;86.11
70154;DHT22;57519;51.494;-2.626;2023-02-05T17:42:49;3.17;86.14
70154;DHT22;57519;51.494;-2.626;2023-02-05T17:45:21;3.11;86.49
70154;DHT22;57519;51.494;-2.626;2023-02-05T17:47:47;3.20;86.77
70154;DHT22;57519;51.494;-2.626;2023-02-05T17:50:14;3.21;86.49
70154;DHT22;57519;51.494;-2.626;2023-02-05T17:52:40;3.13;86.49
70154;DHT22;57519;51.494;-2.626;2023-02-05T17:55:06;3.28;86.71
70154;DHT22;57519;51.494;-2.626;2023-02-05T17:57:34;3.35;86.46
70154;DHT22;57519;51.494;-2.626;2023-02-05T18:00:02;3.31;86.28
70154;DHT22;57519;51.494;-2.626;2023-02-05T18:02:28;3.17;86.23
70154;DHT22;57519;51.494;-2.626;2023-02-05T18:04:53;3.15;86.44
70154;DHT22;57519;51.494;-2.626;2023-02-05T18:07:31;3.11;86.57
70154;DHT22;57519;51.494;-2.626;2023-02-05T18:09:59;3.13;86.73
70154;DHT22;57519;51.494;-2.626;2023-02-05T18:12:24;3.14;86.75
70154;DHT22;57519;51.494;-2.626;2023-02-05T18:14:51;3.04;86.89
70154;DHT22;57519;51.494;-2.626;2023-02-05T18:17:16;3.05;86.98